sensor_id;sensor_type;location;lat;lon;timestamp;P1;durP1;ratioP1;P2;durP2;ratioP2
12745;SDS011;6437;53.686;10.030;2022-08-19T00:02:21;19.15;;;10.48;;
12745;SDS011;6437;53.686;10.030;2022-08-19T00:05:23;15.18;;;11.50;;
12745;SDS011;6437;53.686;10.030;2022-08-19T00:08:26;15.32;;;10.13;;
12745;SDS011;6437;53.686;10.030;2022-08-19T00:11:28;23.58;;;12.02;;
12745;SDS011;6437;53.686;10.030;2022-08-19T00:14:30;15.93;;;12.30;;
12745;SDS011;6437;53.686;10.030;2022-08-19T00:17:32;17.88;;;12.15;;
12745;SDS011;6437;53.686;10.030;2022-08-19T00:20:33;17.85;;;12.50;;
12745;SDS011;6437;53.686;10.030;2022-08-19T00:23:37;25.98;;;12.73;;
12745;SDS011;6437;53.686;10.030;2022-08-19T00:29:41;24.08;;;14.15;;
12745;SDS011;6437;53.686;10.030;2022-08-19T00:32:42;24.02;;;13.07;;
12745;SDS011;6437;53.686;10.030;2022-08-19T00:35:44;20.83;;;12.57;;
12745;SDS011;6437;53.686;10.030;2022-08-19T00:38:47;28.75;;;14.65;;
12745;SDS011;6437;53.686;10.030;2022-08-19T00:41:51;21.38;;;13.20;;
12745;SDS011;6437;53.686;10.030;2022-08-19T00:44:53;17.95;;;13.80;;
12745;SDS011;6437;53.686;10.030;2022-08-19T00:47:55;25.10;;;13.00;;
12745;SDS011;6437;53.686;10.030;2022-08-19T00:50:57;25.80;;;15.30;;
12745;SDS011;6437;53.686;10.030;2022-08-19T00:54:00;26.17;;;13.95;;
12745;SDS011;6437;53.686;10.030;2022-08-19T00:57:04;20.92;;;13.55;;
12745;SDS011;6437;53.686;10.030;2022-08-19T01:00:09;19.02;;;14.65;;
12745;SDS011;6437;53.686;10.030;2022-08-19T01:03:15;22.48;;;15.05;;
12745;SDS011;6437;53.686;10.030;2022-08-19T01:06:18;24.73;;;15.80;;
12745;SDS011;6437;53.686;10.030;2022-08-19T01:09:21;20.10;;;15.02;;
12745;SDS011;6437;53.686;10.030;2022-08-19T01:12:24;23.98;;;16.05;;
12745;SDS011;6437;53.686;10.030;2022-08-19T01:15:27;22.70;;;16.50;;
12745;SDS011;6437;53.686;10.030;2022-08-19T01:18:32;19.55;;;14.88;;
12745;SDS011;6437;53.686;10.030;2022-08-19T01:21:40;22.67;;;16.08;;
12745;SDS011;6437;53.686;10.030;2022-08-19T01:24:48;22.38;;;15.82;;
12745;SDS011;6437;53.686;10.030;2022-08-19T01:27:50;24.85;;;15.73;;
12745;SDS011;6437;53.686;10.030;2022-08-19T01:30:52;27.25;;;17.95;;
12745;SDS011;6437;53.686;10.030;2022-08-19T01:33:56;23.73;;;15.95;;
12745;SDS011;6437;53.686;10.030;2022-08-19T01:40:03;23.48;;;15.77;;
12745;SDS011;6437;53.686;10.030;2022-08-19T01:43:07;21.83;;;16.15;;
12745;SDS011;6437;53.686;10.030;2022-08-19T01:46:09;28.95;;;17.80;;
12745;SDS011;6437;53.686;10.030;2022-08-19T01:49:11;30.10;;;16.48;;
12745;SDS011;6437;53.686;10.030;2022-08-19T01:52:13;25.13;;;16.67;;
12745;SDS011;6437;53.686;10.030;2022-08-19T01:55:18;30.65;;;16.45;;
12745;SDS011;6437;53.686;10.030;2022-08-19T01:58:24;30.95;;;17.02;;
12745;SDS011;6437;53.686;10.030;2022-08-19T02:01:30;38.55;;;18.67;;
12745;SDS011;6437;53.686;10.030;2022-08-19T02:04:32;33.10;;;17.13;;
12745;SDS011;6437;53.686;10.030;2022-08-19T02:07:34;31.77;;;19.30;;
12745;SDS011;6437;53.686;10.030;2022-08-19T02:10:39;45.47;;;19.63;;
12745;SDS011;6437;53.686;10.030;2022-08-19T02:13:43;38.83;;;19.15;;
12745;SDS011;6437;53.686;10.030;2022-08-19T02:16:45;37.03;;;18.90;;
12745;SDS011;6437;53.686;10.030;2022-08-19T02:19:46;40.05;;;20.63;;
12745;SDS011;6437;53.686;10.030;2022-08-19T02:22:48;40.05;;;18.02;;
12745;SDS011;6437;53.686;10.030;2022-08-19T02:25:52;32.78;;;19.58;;
12745;SDS011;6437;53.686;10.030;2022-08-19T02:31:56;43.15;;;20.15;;
12745;SDS011;6437;53.686;10.030;2022-08-19T02:34:58;38.30;;;21.00;;
12745;SDS011;6437;53.686;10.030;2022-08-19T02:37:59;38.25;;;19.38;;
12745;SDS011;6437;53.686;10.030;2022-08-19T02:41:21;41.28;;;20.15;;
12745;SDS011;6437;53.686;10.030;2022-08-19T02:44:24;37.28;;;20.55;;
12745;SDS011;6437;53.686;10.030;2022-08-19T02:47:26;36.28;;;19.38;;
12745;SDS011;6437;53.686;10.030;2022-08-19T02:50:28;49.08;;;20.83;;
12745;SDS011;6437;53.686;10.030;2022-08-19T02:53:30;42.30;;;20.48;;
12745;SDS011;6437;53.686;10.030;2022-08-19T02:56:33;29.27;;;17.55;;
12745;SDS011;6437;53.686;10.030;2022-08-19T02:59:36;35.60;;;18.70;;
12745;SDS011;6437;53.686;10.030;2022-08-19T03:02:38;37.25;;;17.55;;
12745;SDS011;6437;53.686;10.030;2022-08-19T03:05:40;32.63;;;17.13;;
12745;SDS011;6437;53.686;10.030;2022-08-19T03:08:43;44.17;;;17.77;;
12745;SDS011;6437;53.686;10.030;2022-08-19T03:11:48;32.20;;;16.85;;
12745;SDS011;6437;53.686;10.030;2022-08-19T03:14:50;33.05;;;16.45;;
12745;SDS011;6437;53.686;10.030;2022-08-19T03:17:52;23.77;;;13.77;;
12745;SDS011;6437;53.686;10.030;2022-08-19T03:20:54;39.38;;;15.80;;
12745;SDS011;6437;53.686;10.030;2022-08-19T03:23:56;23.80;;;14.95;;
12745;SDS011;6437;53.686;10.030;2022-08-19T03:27:01;26.77;;;13.50;;
12745;SDS011;6437;53.686;10.030;2022-08-19T03:30:05;28.10;;;13.50;;
12745;SDS011;6437;53.686;10.030;2022-08-19T03:33:08;29.45;;;14.00;;
12745;SDS011;6437;53.686;10.030;2022-08-19T03:36:13;26.33;;;12.52;;
12745;SDS011;6437;53.686;10.030;2022-08-19T03:39:17;27.27;;;14.15;;
12745;SDS011;6437;53.686;10.030;2022-08-19T03:42:20;20.00;;;13.35;;
12745;SDS011;6437;53.686;10.030;2022-08-19T03:45:22;33.13;;;15.05;;
12745;SDS011;6437;53.686;10.030;2022-08-19T03:48:23;24.38;;;14.98;;
12745;SDS011;6437;53.686;10.030;2022-08-19T03:51:26;31.33;;;15.43;;
12745;SDS011;6437;53.686;10.030;2022-08-19T03:54:30;25.33;;;15.98;;
12745;SDS011;6437;53.686;10.030;2022-08-19T03:57:34;25.65;;;14.45;;
12745;SDS011;6437;53.686;10.030;2022-08-19T04:00:35;22.23;;;14.88;;
12745;SDS011;6437;53.686;10.030;2022-08-19T04:03:37;28.30;;;17.10;;
12745;SDS011;6437;53.686;10.030;2022-08-19T04:06:39;30.63;;;17.38;;
12745;SDS011;6437;53.686;10.030;2022-08-19T04:09:41;36.03;;;21.17;;
12745;SDS011;6437;53.686;10.030;2022-08-19T04:12:44;40.80;;;18.63;;
12745;SDS011;6437;53.686;10.030;2022-08-19T04:15:47;50.75;;;21.45;;
12745;SDS011;6437;53.686;10.030;2022-08-19T04:18:48;40.22;;;20.15;;
12745;SDS011;6437;53.686;10.030;2022-08-19T04:21:52;39.77;;;19.40;;
12745;SDS011;6437;53.686;10.030;2022-08-19T04:24:55;46.40;;;23.00;;
12745;SDS011;6437;53.686;10.030;2022-08-19T04:27:58;39.20;;;19.40;;
12745;SDS011;6437;53.686;10.030;2022-08-19T04:30:59;47.38;;;21.13;;
12745;SDS011;6437;53.686;10.030;2022-08-19T04:34:02;40.20;;;20.52;;
12745;SDS011;6437;53.686;10.030;2022-08-19T04:37:05;36.95;;;21.30;;
12745;SDS011;6437;53.686;10.030;2022-08-19T04:40:11;45.17;;;22.58;;
12745;SDS011;6437;53.686;10.030;2022-08-19T04:43:32;47.00;;;25.30;;
12745;SDS011;6437;53.686;10.030;2022-08-19T04:46:35;47.75;;;24.33;;
12745;SDS011;6437;53.686;10.030;2022-08-19T04:49:37;41.85;;;22.23;;
12745;SDS011;6437;53.686;10.030;2022-08-19T04:52:39;54.35;;;24.38;;
12745;SDS011;6437;53.686;10.030;2022-08-19T04:55:42;51.13;;;25.23;;
12745;SDS011;6437;53.686;10.030;2022-08-19T04:58:46;42.20;;;23.48;;
12745;SDS011;6437;53.686;10.030;2022-08-19T05:01:48;48.85;;;25.50;;
12745;SDS011;6437;53.686;10.030;2022-08-19T05:04:50;42.10;;;23.77;;
12745;SDS011;6437;53.686;10.030;2022-08-19T05:07:52;51.72;;;25.40;;
12745;SDS011;6437;53.686;10.030;2022-08-19T05:10:55;44.30;;;22.65;;
12745;SDS011;6437;53.686;10.030;2022-08-19T05:13:59;51.13;;;25.52;;
12745;SDS011;6437;53.686;10.030;2022-08-19T05:17:01;47.17;;;24.60;;
12745;SDS011;6437;53.686;10.030;2022-08-19T05:20:03;54.60;;;24.15;;
12745;SDS011;6437;53.686;10.030;2022-08-19T05:23:34;57.70;;;22.55;;
12745;SDS011;6437;53.686;10.030;2022-08-19T05:26:35;45.35;;;21.45;;
12745;SDS011;6437;53.686;10.030;2022-08-19T05:29:39;35.73;;;19.30;;
12745;SDS011;6437;53.686;10.030;2022-08-19T05:32:41;31.80;;;18.60;;
12745;SDS011;6437;53.686;10.030;2022-08-19T05:35:44;32.97;;;17.65;;
12745;SDS011;6437;53.686;10.030;2022-08-19T05:38:46;39.20;;;18.33;;
12745;SDS011;6437;53.686;10.030;2022-08-19T05:41:51;27.77;;;15.50;;
12745;SDS011;6437;53.686;10.030;2022-08-19T05:44:58;31.17;;;17.90;;
12745;SDS011;6437;53.686;10.030;2022-08-19T05:48:00;33.55;;;18.20;;
12745;SDS011;6437;53.686;10.030;2022-08-19T05:51:03;30.98;;;15.40;;
12745;SDS011;6437;53.686;10.030;2022-08-19T05:54:06;26.75;;;15.73;;
12745;SDS011;6437;53.686;10.030;2022-08-19T05:57:11;28.08;;;16.20;;
12745;SDS011;6437;53.686;10.030;2022-08-19T06:00:14;31.60;;;16.13;;
12745;SDS011;6437;53.686;10.030;2022-08-19T06:03:16;34.33;;;15.32;;
12745;SDS011;6437;53.686;10.030;2022-08-19T06:06:19;34.15;;;16.55;;
12745;SDS011;6437;53.686;10.030;2022-08-19T06:09:21;40.75;;;19.48;;
12745;SDS011;6437;53.686;10.030;2022-08-19T06:12:23;33.65;;;17.77;;
12745;SDS011;6437;53.686;10.030;2022-08-19T06:15:30;26.70;;;16.17;;
12745;SDS011;6437;53.686;10.030;2022-08-19T06:21:34;36.42;;;16.88;;
12745;SDS011;6437;53.686;10.030;2022-08-19T06:24:37;30.58;;;17.42;;
12745;SDS011;6437;53.686;10.030;2022-08-19T06:27:40;28.45;;;16.35;;
12745;SDS011;6437;53.686;10.030;2022-08-19T06:30:44;24.02;;;14.13;;
12745;SDS011;6437;53.686;10.030;2022-08-19T06:36:48;18.85;;;12.80;;
12745;SDS011;6437;53.686;10.030;2022-08-19T06:39:52;23.13;;;13.57;;
12745;SDS011;6437;53.686;10.030;2022-08-19T06:42:54;23.13;;;14.25;;
12745;SDS011;6437;53.686;10.030;2022-08-19T06:45:59;21.45;;;12.95;;
12745;SDS011;6437;53.686;10.030;2022-08-19T06:49:03;20.77;;;13.10;;
12745;SDS011;6437;53.686;10.030;2022-08-19T06:52:07;22.42;;;12.93;;
12745;SDS011;6437;53.686;10.030;2022-08-19T06:55:11;20.38;;;13.45;;
12745;SDS011;6437;53.686;10.030;2022-08-19T06:58:13;19.35;;;13.27;;
12745;SDS011;6437;53.686;10.030;2022-08-19T07:01:16;20.75;;;13.95;;
12745;SDS011;6437;53.686;10.030;2022-08-19T07:04:19;20.73;;;15.05;;
12745;SDS011;6437;53.686;10.030;2022-08-19T07:07:23;28.65;;;15.73;;
12745;SDS011;6437;53.686;10.030;2022-08-19T07:10:25;26.42;;;14.57;;
12745;SDS011;6437;53.686;10.030;2022-08-19T07:13:26;28.02;;;16.20;;
12745;SDS011;6437;53.686;10.030;2022-08-19T07:16:29;29.05;;;16.85;;
12745;SDS011;6437;53.686;10.030;2022-08-19T07:22:33;34.35;;;17.23;;
12745;SDS011;6437;53.686;10.030;2022-08-19T07:25:35;40.20;;;18.25;;
12745;SDS011;6437;53.686;10.030;2022-08-19T07:28:37;36.10;;;17.83;;
12745;SDS011;6437;53.686;10.030;2022-08-19T07:31:41;29.67;;;15.50;;
12745;SDS011;6437;53.686;10.030;2022-08-19T07:34:43;38.88;;;16.73;;
12745;SDS011;6437;53.686;10.030;2022-08-19T07:37:45;30.05;;;17.05;;
12745;SDS011;6437;53.686;10.030;2022-08-19T07:40:47;37.63;;;19.23;;
12745;SDS011;6437;53.686;10.030;2022-08-19T07:43:51;39.97;;;16.85;;
12745;SDS011;6437;53.686;10.030;2022-08-19T07:46:55;29.83;;;16.23;;
12745;SDS011;6437;53.686;10.030;2022-08-19T07:50:00;28.13;;;15.20;;
12745;SDS011;6437;53.686;10.030;2022-08-19T07:53:04;34.75;;;16.65;;
12745;SDS011;6437;53.686;10.030;2022-08-19T07:56:06;33.40;;;17.20;;
12745;SDS011;6437;53.686;10.030;2022-08-19T07:59:08;33.08;;;16.42;;
12745;SDS011;6437;53.686;10.030;2022-08-19T08:02:11;29.02;;;14.20;;
12745;SDS011;6437;53.686;10.030;2022-08-19T08:05:13;30.65;;;14.00;;
12745;SDS011;6437;53.686;10.030;2022-08-19T08:08:33;31.92;;;14.63;;
12745;SDS011;6437;53.686;10.030;2022-08-19T08:11:53;39.33;;;17.92;;
12745;SDS011;6437;53.686;10.030;2022-08-19T08:14:58;28.67;;;15.05;;
12745;SDS011;6437;53.686;10.030;2022-08-19T08:18:03;38.65;;;17.60;;
12745;SDS011;6437;53.686;10.030;2022-08-19T08:21:06;27.33;;;14.52;;
12745;SDS011;6437;53.686;10.030;2022-08-19T08:24:08;32.53;;;16.25;;
12745;SDS011;6437;53.686;10.030;2022-08-19T08:27:10;29.77;;;14.67;;
12745;SDS011;6437;53.686;10.030;2022-08-19T08:30:13;34.28;;;15.65;;
12745;SDS011;6437;53.686;10.030;2022-08-19T08:33:18;28.80;;;15.07;;
12745;SDS011;6437;53.686;10.030;2022-08-19T08:36:21;37.45;;;18.25;;
12745;SDS011;6437;53.686;10.030;2022-08-19T08:39:25;39.22;;;15.13;;
12745;SDS011;6437;53.686;10.030;2022-08-19T08:45:33;28.40;;;15.45;;
12745;SDS011;6437;53.686;10.030;2022-08-19T08:48:42;35.95;;;15.20;;
12745;SDS011;6437;53.686;10.030;2022-08-19T08:51:50;32.65;;;16.88;;
12745;SDS011;6437;53.686;10.030;2022-08-19T08:54:57;27.00;;;16.27;;
12745;SDS011;6437;53.686;10.030;2022-08-19T08:58:02;28.98;;;16.33;;
12745;SDS011;6437;53.686;10.030;2022-08-19T09:01:06;36.65;;;15.60;;
12745;SDS011;6437;53.686;10.030;2022-08-19T09:04:12;33.88;;;15.50;;
12745;SDS011;6437;53.686;10.030;2022-08-19T09:07:20;34.60;;;16.35;;
12745;SDS011;6437;53.686;10.030;2022-08-19T09:10:34;28.25;;;14.35;;
12745;SDS011;6437;53.686;10.030;2022-08-19T09:13:42;28.80;;;16.58;;
12745;SDS011;6437;53.686;10.030;2022-08-19T09:16:50;32.47;;;16.52;;
12745;SDS011;6437;53.686;10.030;2022-08-19T09:19:53;28.23;;;15.52;;
12745;SDS011;6437;53.686;10.030;2022-08-19T09:22:57;28.63;;;17.10;;
12745;SDS011;6437;53.686;10.030;2022-08-19T09:25:59;34.03;;;15.50;;
12745;SDS011;6437;53.686;10.030;2022-08-19T09:29:01;39.65;;;17.67;;
12745;SDS011;6437;53.686;10.030;2022-08-19T09:32:05;27.58;;;16.50;;
12745;SDS011;6437;53.686;10.030;2022-08-19T09:35:09;30.17;;;16.13;;
12745;SDS011;6437;53.686;10.030;2022-08-19T09:38:11;38.13;;;18.45;;
12745;SDS011;6437;53.686;10.030;2022-08-19T09:41:14;32.10;;;16.27;;
12745;SDS011;6437;53.686;10.030;2022-08-19T09:44:17;28.45;;;16.27;;
12745;SDS011;6437;53.686;10.030;2022-08-19T09:47:20;30.27;;;17.42;;
12745;SDS011;6437;53.686;10.030;2022-08-19T09:50:23;28.83;;;17.35;;
12745;SDS011;6437;53.686;10.030;2022-08-19T09:53:26;31.73;;;17.83;;
12745;SDS011;6437;53.686;10.030;2022-08-19T09:59:31;28.10;;;18.42;;
12745;SDS011;6437;53.686;10.030;2022-08-19T10:02:33;22.83;;;14.70;;
12745;SDS011;6437;53.686;10.030;2022-08-19T10:05:36;31.73;;;19.38;;
12745;SDS011;6437;53.686;10.030;2022-08-19T10:08:50;26.35;;;15.85;;
12745;SDS011;6437;53.686;10.030;2022-08-19T10:11:52;22.45;;;15.48;;
12745;SDS011;6437;53.686;10.030;2022-08-19T10:14:54;21.08;;;14.10;;
12745;SDS011;6437;53.686;10.030;2022-08-19T10:17:56;19.73;;;15.00;;
12745;SDS011;6437;53.686;10.030;2022-08-19T10:21:05;17.10;;;13.23;;
12745;SDS011;6437;53.686;10.030;2022-08-19T10:24:09;27.73;;;14.63;;
12745;SDS011;6437;53.686;10.030;2022-08-19T10:27:10;24.02;;;14.43;;
12745;SDS011;6437;53.686;10.030;2022-08-19T10:30:13;25.75;;;14.82;;
12745;SDS011;6437;53.686;10.030;2022-08-19T10:33:15;20.40;;;13.52;;
12745;SDS011;6437;53.686;10.030;2022-08-19T10:36:19;31.30;;;15.35;;
12745;SDS011;6437;53.686;10.030;2022-08-19T10:39:23;20.73;;;14.77;;
12745;SDS011;6437;53.686;10.030;2022-08-19T10:42:25;28.60;;;15.13;;
12745;SDS011;6437;53.686;10.030;2022-08-19T10:45:27;21.08;;;13.18;;
12745;SDS011;6437;53.686;10.030;2022-08-19T10:48:28;22.30;;;14.48;;
12745;SDS011;6437;53.686;10.030;2022-08-19T10:51:31;25.40;;;13.25;;
12745;SDS011;6437;53.686;10.030;2022-08-19T10:54:51;21.48;;;13.50;;
12745;SDS011;6437;53.686;10.030;2022-08-19T10:58:11;24.63;;;12.50;;
12745;SDS011;6437;53.686;10.030;2022-08-19T11:01:15;20.42;;;12.50;;
12745;SDS011;6437;53.686;10.030;2022-08-19T11:04:17;18.88;;;11.68;;
12745;SDS011;6437;53.686;10.030;2022-08-19T11:10:25;23.13;;;12.10;;
12745;SDS011;6437;53.686;10.030;2022-08-19T11:13:26;25.00;;;12.27;;
12745;SDS011;6437;53.686;10.030;2022-08-19T11:16:29;20.57;;;12.07;;
12745;SDS011;6437;53.686;10.030;2022-08-19T11:19:31;15.70;;;10.77;;
12745;SDS011;6437;53.686;10.030;2022-08-19T11:22:35;21.73;;;14.25;;
12745;SDS011;6437;53.686;10.030;2022-08-19T11:25:37;21.35;;;12.35;;
12745;SDS011;6437;53.686;10.030;2022-08-19T11:28:40;18.90;;;12.93;;
12745;SDS011;6437;53.686;10.030;2022-08-19T11:31:43;21.83;;;13.23;;
12745;SDS011;6437;53.686;10.030;2022-08-19T11:34:46;24.45;;;12.82;;
12745;SDS011;6437;53.686;10.030;2022-08-19T11:37:49;18.13;;;11.82;;
12745;SDS011;6437;53.686;10.030;2022-08-19T11:43:56;15.65;;;11.40;;
12745;SDS011;6437;53.686;10.030;2022-08-19T11:46:58;15.07;;;11.13;;
12745;SDS011;6437;53.686;10.030;2022-08-19T11:50:00;17.00;;;10.35;;
12745;SDS011;6437;53.686;10.030;2022-08-19T11:53:03;15.93;;;10.23;;
12745;SDS011;6437;53.686;10.030;2022-08-19T11:56:06;17.08;;;9.48;;
12745;SDS011;6437;53.686;10.030;2022-08-19T11:59:09;11.77;;;9.55;;
12745;SDS011;6437;53.686;10.030;2022-08-19T12:02:11;14.32;;;9.43;;
12745;SDS011;6437;53.686;10.030;2022-08-19T12:05:14;11.27;;;9.25;;
12745;SDS011;6437;53.686;10.030;2022-08-19T12:08:17;12.90;;;9.75;;
12745;SDS011;6437;53.686;10.030;2022-08-19T12:11:19;15.93;;;11.13;;
12745;SDS011;6437;53.686;10.030;2022-08-19T12:14:21;16.27;;;11.18;;
12745;SDS011;6437;53.686;10.030;2022-08-19T12:17:24;20.87;;;12.87;;
12745;SDS011;6437;53.686;10.030;2022-08-19T12:20:27;13.32;;;10.18;;
12745;SDS011;6437;53.686;10.030;2022-08-19T12:23:30;21.42;;;11.30;;
12745;SDS011;6437;53.686;10.030;2022-08-19T12:29:34;15.15;;;11.35;;
12745;SDS011;6437;53.686;10.030;2022-08-19T12:32:36;12.90;;;9.80;;
12745;SDS011;6437;53.686;10.030;2022-08-19T12:35:39;14.80;;;10.40;;
12745;SDS011;6437;53.686;10.030;2022-08-19T12:38:43;16.63;;;10.18;;
12745;SDS011;6437;53.686;10.030;2022-08-19T12:41:46;14.10;;;10.07;;
12745;SDS011;6437;53.686;10.030;2022-08-19T12:44:49;13.47;;;12.07;;
12745;SDS011;6437;53.686;10.030;2022-08-19T12:47:51;13.13;;;10.18;;
12745;SDS011;6437;53.686;10.030;2022-08-19T12:50:53;16.00;;;12.15;;
12745;SDS011;6437;53.686;10.030;2022-08-19T12:53:57;16.58;;;12.43;;
12745;SDS011;6437;53.686;10.030;2022-08-19T12:56:59;18.05;;;11.23;;
12745;SDS011;6437;53.686;10.030;2022-08-19T13:00:03;12.27;;;9.50;;
12745;SDS011;6437;53.686;10.030;2022-08-19T13:03:09;13.38;;;11.98;;
12745;SDS011;6437;53.686;10.030;2022-08-19T13:06:11;12.27;;;10.73;;
12745;SDS011;6437;53.686;10.030;2022-08-19T13:09:15;10.67;;;9.67;;
12745;SDS011;6437;53.686;10.030;2022-08-19T13:12:16;13.27;;;11.32;;
12745;SDS011;6437;53.686;10.030;2022-08-19T13:15:21;14.30;;;10.45;;
12745;SDS011;6437;53.686;10.030;2022-08-19T13:18:24;10.60;;;9.57;;
12745;SDS011;6437;53.686;10.030;2022-08-19T13:21:26;10.15;;;9.15;;
12745;SDS011;6437;53.686;10.030;2022-08-19T13:24:31;15.05;;;11.98;;
12745;SDS011;6437;53.686;10.030;2022-08-19T13:27:33;11.43;;;10.20;;
12745;SDS011;6437;53.686;10.030;2022-08-19T13:30:35;15.50;;;9.88;;
12745;SDS011;6437;53.686;10.030;2022-08-19T13:33:54;15.23;;;9.77;;
12745;SDS011;6437;53.686;10.030;2022-08-19T13:36:56;15.15;;;9.90;;
12745;SDS011;6437;53.686;10.030;2022-08-19T13:40:00;13.20;;;10.43;;
12745;SDS011;6437;53.686;10.030;2022-08-19T13:46:08;11.27;;;8.48;;
12745;SDS011;6437;53.686;10.030;2022-08-19T13:49:14;10.88;;;9.07;;
12745;SDS011;6437;53.686;10.030;2022-08-19T13:52:16;10.75;;;9.65;;
12745;SDS011;6437;53.686;10.030;2022-08-19T13:55:19;10.02;;;9.02;;
12745;SDS011;6437;53.686;10.030;2022-08-19T13:58:22;13.13;;;9.55;;
12745;SDS011;6437;53.686;10.030;2022-08-19T14:01:24;11.23;;;9.90;;
12745;SDS011;6437;53.686;10.030;2022-08-19T14:04:26;13.93;;;9.80;;
12745;SDS011;6437;53.686;10.030;2022-08-19T14:07:28;11.63;;;10.43;;
12745;SDS011;6437;53.686;10.030;2022-08-19T14:10:31;10.57;;;9.30;;
12745;SDS011;6437;53.686;10.030;2022-08-19T14:13:34;9.63;;;8.40;;
12745;SDS011;6437;53.686;10.030;2022-08-19T14:16:35;12.00;;;9.80;;
12745;SDS011;6437;53.686;10.030;2022-08-19T14:19:37;13.15;;;9.23;;
12745;SDS011;6437;53.686;10.030;2022-08-19T14:22:40;9.35;;;8.55;;
12745;SDS011;6437;53.686;10.030;2022-08-19T14:25:44;12.05;;;9.02;;
12745;SDS011;6437;53.686;10.030;2022-08-19T14:28:46;9.95;;;9.05;;
12745;SDS011;6437;53.686;10.030;2022-08-19T14:31:49;9.90;;;8.80;;
12745;SDS011;6437;53.686;10.030;2022-08-19T14:34:51;11.50;;;8.75;;
12745;SDS011;6437;53.686;10.030;2022-08-19T14:37:53;15.25;;;11.30;;
12745;SDS011;6437;53.686;10.030;2022-08-19T14:41:04;18.48;;;12.13;;
12745;SDS011;6437;53.686;10.030;2022-08-19T14:44:07;10.88;;;9.90;;
12745;SDS011;6437;53.686;10.030;2022-08-19T14:47:12;16.25;;;9.45;;
12745;SDS011;6437;53.686;10.030;2022-08-19T14:50:14;12.25;;;8.82;;
12745;SDS011;6437;53.686;10.030;2022-08-19T14:53:16;11.35;;;10.20;;
12745;SDS011;6437;53.686;10.030;2022-08-19T14:56:20;12.27;;;9.90;;
12745;SDS011;6437;53.686;10.030;2022-08-19T14:59:23;10.63;;;9.70;;
12745;SDS011;6437;53.686;10.030;2022-08-19T15:02:26;9.90;;;8.98;;
12745;SDS011;6437;53.686;10.030;2022-08-19T15:05:27;12.43;;;8.68;;
12745;SDS011;6437;53.686;10.030;2022-08-19T15:08:29;14.15;;;11.18;;
12745;SDS011;6437;53.686;10.030;2022-08-19T15:11:35;13.25;;;9.90;;
12745;SDS011;6437;53.686;10.030;2022-08-19T15:14:38;11.32;;;8.18;;
12745;SDS011;6437;53.686;10.030;2022-08-19T15:17:42;15.55;;;9.93;;
12745;SDS011;6437;53.686;10.030;2022-08-19T15:20:44;13.40;;;10.55;;
12745;SDS011;6437;53.686;10.030;2022-08-19T15:23:47;13.13;;;9.30;;
12745;SDS011;6437;53.686;10.030;2022-08-19T15:26:51;16.15;;;10.13;;
12745;SDS011;6437;53.686;10.030;2022-08-19T15:29:53;11.55;;;9.90;;
12745;SDS011;6437;53.686;10.030;2022-08-19T15:32:56;14.27;;;11.50;;
12745;SDS011;6437;53.686;10.030;2022-08-19T15:35:59;12.00;;;10.47;;
12745;SDS011;6437;53.686;10.030;2022-08-19T15:39:00;11.38;;;10.00;;
12745;SDS011;6437;53.686;10.030;2022-08-19T15:42:05;9.82;;;8.23;;
12745;SDS011;6437;53.686;10.030;2022-08-19T15:45:08;9.57;;;8.32;;
12745;SDS011;6437;53.686;10.030;2022-08-19T15:48:11;10.68;;;7.70;;
12745;SDS011;6437;53.686;10.030;2022-08-19T15:51:13;10.82;;;9.13;;
12745;SDS011;6437;53.686;10.030;2022-08-19T15:54:16;10.63;;;8.77;;
12745;SDS011;6437;53.686;10.030;2022-08-19T15:57:21;12.25;;;9.10;;
12745;SDS011;6437;53.686;10.030;2022-08-19T16:00:41;9.38;;;7.45;;
12745;SDS011;6437;53.686;10.030;2022-08-19T16:04:00;11.50;;;8.65;;
12745;SDS011;6437;53.686;10.030;2022-08-19T16:07:19;8.70;;;7.93;;
12745;SDS011;6437;53.686;10.030;2022-08-19T16:10:21;8.40;;;7.68;;
12745;SDS011;6437;53.686;10.030;2022-08-19T16:13:25;13.13;;;8.35;;
12745;SDS011;6437;53.686;10.030;2022-08-19T16:19:29;10.55;;;8.60;;
12745;SDS011;6437;53.686;10.030;2022-08-19T16:22:32;9.52;;;8.18;;
12745;SDS011;6437;53.686;10.030;2022-08-19T16:25:34;13.10;;;7.80;;
12745;SDS011;6437;53.686;10.030;2022-08-19T16:28:38;8.75;;;7.85;;
12745;SDS011;6437;53.686;10.030;2022-08-19T16:31:41;13.07;;;8.45;;
12745;SDS011;6437;53.686;10.030;2022-08-19T16:34:44;8.23;;;7.35;;
12745;SDS011;6437;53.686;10.030;2022-08-19T16:37:47;10.30;;;7.38;;
12745;SDS011;6437;53.686;10.030;2022-08-19T16:40:48;11.13;;;7.57;;
12745;SDS011;6437;53.686;10.030;2022-08-19T16:43:55;10.32;;;8.55;;
12745;SDS011;6437;53.686;10.030;2022-08-19T16:49:58;8.05;;;7.07;;
12745;SDS011;6437;53.686;10.030;2022-08-19T16:53:00;10.77;;;7.90;;
12745;SDS011;6437;53.686;10.030;2022-08-19T16:56:02;7.85;;;7.22;;
12745;SDS011;6437;53.686;10.030;2022-08-19T16:59:05;13.10;;;10.05;;
12745;SDS011;6437;53.686;10.030;2022-08-19T17:02:07;9.27;;;8.30;;
12745;SDS011;6437;53.686;10.030;2022-08-19T17:05:09;12.00;;;8.40;;
12745;SDS011;6437;53.686;10.030;2022-08-19T17:08:11;10.75;;;7.90;;
12745;SDS011;6437;53.686;10.030;2022-08-19T17:11:13;7.95;;;7.05;;
12745;SDS011;6437;53.686;10.030;2022-08-19T17:14:16;11.65;;;8.02;;
12745;SDS011;6437;53.686;10.030;2022-08-19T17:17:18;8.80;;;7.97;;
12745;SDS011;6437;53.686;10.030;2022-08-19T17:20:20;10.10;;;9.07;;
12745;SDS011;6437;53.686;10.030;2022-08-19T17:23:22;9.82;;;8.88;;
12745;SDS011;6437;53.686;10.030;2022-08-19T17:26:24;10.90;;;9.52;;
12745;SDS011;6437;53.686;10.030;2022-08-19T17:29:28;9.68;;;8.63;;
12745;SDS011;6437;53.686;10.030;2022-08-19T17:35:34;10.55;;;8.80;;
12745;SDS011;6437;53.686;10.030;2022-08-19T17:38:36;10.45;;;9.45;;
12745;SDS011;6437;53.686;10.030;2022-08-19T17:41:38;10.05;;;8.40;;
12745;SDS011;6437;53.686;10.030;2022-08-19T17:44:41;12.10;;;9.63;;
12745;SDS011;6437;53.686;10.030;2022-08-19T17:47:43;11.35;;;8.52;;
12745;SDS011;6437;53.686;10.030;2022-08-19T17:50:45;9.88;;;8.82;;
12745;SDS011;6437;53.686;10.030;2022-08-19T17:53:47;10.50;;;8.35;;
12745;SDS011;6437;53.686;10.030;2022-08-19T17:56:50;10.38;;;9.57;;
12745;SDS011;6437;53.686;10.030;2022-08-19T17:59:53;11.05;;;9.35;;
12745;SDS011;6437;53.686;10.030;2022-08-19T18:02:58;10.88;;;8.82;;
12745;SDS011;6437;53.686;10.030;2022-08-19T18:06:02;10.48;;;9.45;;
12745;SDS011;6437;53.686;10.030;2022-08-19T18:09:04;12.02;;;10.77;;
12745;SDS011;6437;53.686;10.030;2022-08-19T18:12:07;10.38;;;8.80;;
12745;SDS011;6437;53.686;10.030;2022-08-19T18:18:13;15.63;;;10.60;;
12745;SDS011;6437;53.686;10.030;2022-08-19T18:21:15;12.48;;;10.73;;
12745;SDS011;6437;53.686;10.030;2022-08-19T18:24:18;12.17;;;10.97;;
12745;SDS011;6437;53.686;10.030;2022-08-19T18:27:19;13.80;;;10.30;;
12745;SDS011;6437;53.686;10.030;2022-08-19T18:30:22;11.02;;;9.85;;
12745;SDS011;6437;53.686;10.030;2022-08-19T18:33:25;11.02;;;9.88;;
12745;SDS011;6437;53.686;10.030;2022-08-19T18:36:27;12.35;;;10.15;;
12745;SDS011;6437;53.686;10.030;2022-08-19T18:39:29;12.38;;;11.07;;
12745;SDS011;6437;53.686;10.030;2022-08-19T18:42:57;10.93;;;9.90;;
12745;SDS011;6437;53.686;10.030;2022-08-19T18:46:20;9.88;;;8.88;;
12745;SDS011;6437;53.686;10.030;2022-08-19T18:49:39;14.80;;;11.20;;